createdAt,value
2023-09-02T00:00:12.156Z,1.9
2023-09-02T00:01:20.697Z,2
2023-09-02T00:02:29.027Z,2
2023-09-02T00:03:37.303Z,2
2023-09-02T00:04:45.832Z,2.2
2023-09-02T00:05:54.153Z,2.2
2023-09-02T00:07:02.468Z,2.2
2023-09-02T00:08:10.985Z,2
2023-09-02T00:09:19.320Z,2
2023-09-02T00:10:27.635Z,2
2023-09-02T00:11:36.157Z,2.1
2023-09-02T00:12:44.485Z,2.1
2023-09-02T00:13:52.808Z,2.1
2023-09-02T00:15:01.349Z,2.2
2023-09-02T00:16:09.727Z,2.2
2023-09-02T00:17:17.978Z,2.2
2023-09-02T00:18:26.519Z,2
2023-09-02T00:19:34.827Z,2
2023-09-02T00:20:43.149Z,2
2023-09-02T00:21:51.670Z,2
2023-09-02T00:22:59.991Z,2
2023-09-02T00:24:08.324Z,2
2023-09-02T00:25:16.849Z,2.1
2023-09-02T00:26:25.154Z,2.1
2023-09-02T00:27:33.486Z,2.1
2023-09-02T00:28:42.012Z,2.1
2023-09-02T00:29:50.340Z,2.1
2023-09-02T00:30:58.648Z,2.1
2023-09-02T00:32:07.246Z,1.9
2023-09-02T00:33:15.762Z,1.9
2023-09-02T00:34:23.885Z,1.9
2023-09-02T00:35:32.380Z,2
2023-09-02T00:36:40.724Z,2
2023-09-02T00:37:49.024Z,2
2023-09-02T00:38:57.539Z,2.3
2023-09-02T00:40:05.865Z,2.3
2023-09-02T00:41:14.191Z,2.3
2023-09-02T00:42:22.712Z,2.1
2023-09-02T00:43:31.062Z,2.1
2023-09-02T00:44:39.379Z,2.1
2023-09-02T00:45:47.955Z,2
2023-09-02T00:46:56.219Z,2
2023-09-02T00:48:04.593Z,2
2023-09-02T00:49:13.076Z,1.9
2023-09-02T00:50:21.401Z,1.9
2023-09-02T00:51:29.726Z,1.9
2023-09-02T00:52:38.249Z,1.8
2023-09-02T00:53:46.574Z,1.8
2023-09-02T00:54:54.890Z,1.8
2023-09-02T00:56:03.424Z,1.9
2023-09-02T00:57:11.755Z,1.9
2023-09-02T00:58:20.066Z,1.9
2023-09-02T00:59:28.584Z,1.9
2023-09-02T01:00:36.916Z,1.9
2023-09-02T01:01:45.231Z,1.9
2023-09-02T01:02:53.778Z,1.9
2023-09-02T01:04:02.154Z,1.9
2023-09-02T01:05:10.393Z,1.9
2023-09-02T01:06:18.908Z,1.7
2023-09-02T01:07:27.223Z,1.7
2023-09-02T01:08:35.534Z,1.7
2023-09-02T01:09:44.070Z,1.9
2023-09-02T01:10:52.379Z,1.9
2023-09-02T01:12:00.693Z,1.9
2023-09-02T01:13:09.215Z,2.2
2023-09-02T01:14:17.552Z,2.2
2023-09-02T01:15:25.873Z,2.2
2023-09-02T01:16:34.473Z,2
2023-09-02T01:17:42.726Z,2
2023-09-02T01:18:51.044Z,2
2023-09-02T01:19:59.600Z,1.7
2023-09-02T01:21:07.889Z,1.7
2023-09-02T01:22:16.216Z,1.7
2023-09-02T01:23:24.752Z,1.9
2023-09-02T01:24:33.094Z,1.9
2023-09-02T01:25:41.384Z,1.9
2023-09-02T01:26:49.909Z,2
2023-09-02T01:27:58.249Z,2
2023-09-02T01:29:06.565Z,2
2023-09-02T01:30:15.080Z,1.9
2023-09-02T01:31:23.415Z,1.9
2023-09-02T01:32:31.776Z,1.9
2023-09-02T01:33:40.267Z,1.9
2023-09-02T01:34:48.584Z,1.9
2023-09-02T01:35:56.927Z,1.9
2023-09-02T01:37:05.432Z,1.7
2023-09-02T01:38:13.759Z,1.7
2023-09-02T01:39:22.074Z,1.7
2023-09-02T01:40:30.606Z,1.7
2023-09-02T01:41:38.937Z,1.7
2023-09-02T01:42:47.262Z,1.7
2023-09-02T01:43:55.815Z,2.2
2023-09-02T01:45:04.092Z,2.2
2023-09-02T01:46:12.421Z,2.2
2023-09-02T01:47:20.921Z,1.9
2023-09-02T01:48:29.232Z,1.9
2023-09-02T01:49:37.539Z,1.9
2023-09-02T01:50:46.089Z,2.1
2023-09-02T01:51:54.415Z,2.1
2023-09-02T01:53:02.705Z,2.1
2023-09-02T01:54:11.232Z,1.9
2023-09-02T01:55:19.565Z,1.9
2023-09-02T01:56:27.873Z,1.9
2023-09-02T01:57:36.404Z,1.8
2023-09-02T01:58:44.723Z,1.8
2023-09-02T01:59:53.040Z,1.8
2023-09-02T02:01:01.617Z,2
2023-09-02T02:02:09.880Z,2
2023-09-02T02:03:18.536Z,2
2023-09-02T02:04:26.727Z,1.8
2023-09-02T02:05:35.036Z,1.8
2023-09-02T02:06:43.356Z,1.8
2023-09-02T02:07:51.896Z,2
2023-09-02T02:09:00.201Z,2
2023-09-02T02:10:08.521Z,2
2023-09-02T02:11:17.048Z,2.2
2023-09-02T02:12:25.366Z,2.2
2023-09-02T02:13:33.699Z,2.2
2023-09-02T02:14:42.219Z,2
2023-09-02T02:15:50.550Z,2
2023-09-02T02:16:58.856Z,2
2023-09-02T02:18:07.440Z,2.1
2023-09-02T02:19:15.734Z,2.1
2023-09-02T02:20:24.041Z,2.1
2023-09-02T02:21:32.564Z,1.9
2023-09-02T02:22:40.904Z,1.9
2023-09-02T02:23:49.281Z,1.9
2023-09-02T02:24:57.733Z,2
2023-09-02T02:26:06.183Z,2
2023-09-02T02:27:14.377Z,2
2023-09-02T02:28:22.907Z,1.5
2023-09-02T02:29:31.223Z,1.5
2023-09-02T02:30:39.541Z,1.5
2023-09-02T02:31:48.130Z,1.2
2023-09-02T02:32:56.420Z,1.2
2023-09-02T02:34:04.720Z,1.2
2023-09-02T02:35:13.246Z,1.3
2023-09-02T02:36:21.570Z,1.3
2023-09-02T02:37:29.896Z,1.3
2023-09-02T02:38:38.423Z,1.3
2023-09-02T02:39:46.760Z,1.3
2023-09-02T02:40:55.042Z,1.3
2023-09-02T02:42:03.613Z,1.5
2023-09-02T02:43:11.931Z,1.5
2023-09-02T02:44:20.248Z,1.5
2023-09-02T02:45:28.788Z,1.3
2023-09-02T02:46:37.101Z,1.3
2023-09-02T02:47:45.431Z,1.3
2023-09-02T02:48:53.968Z,1.5
2023-09-02T02:50:02.281Z,1.5
2023-09-02T02:51:10.614Z,1.5
2023-09-02T02:52:19.141Z,1.2
2023-09-02T02:53:27.460Z,1.2
2023-09-02T02:54:35.763Z,1.2
2023-09-02T02:55:44.327Z,1.2
2023-09-02T02:56:52.610Z,1.2
2023-09-02T02:58:00.933Z,1.2
2023-09-02T02:59:09.459Z,1.3
2023-09-02T03:00:17.790Z,1.3
2023-09-02T03:01:26.136Z,1.3
2023-09-02T03:02:34.674Z,1.4
2023-09-02T03:03:42.979Z,1.4
2023-09-02T03:04:51.268Z,1.4
2023-09-02T03:05:59.794Z,1.4
2023-09-02T03:07:08.117Z,1.4
2023-09-02T03:08:16.440Z,1.4
2023-09-02T03:09:24.965Z,1.4
2023-09-02T03:10:33.281Z,1.4
2023-09-02T03:11:41.618Z,1.4
2023-09-02T03:12:50.137Z,1.5
2023-09-02T03:13:58.454Z,1.5
2023-09-02T03:15:06.773Z,1.5
2023-09-02T03:16:15.322Z,1.4
2023-09-02T03:17:23.617Z,1.4
2023-09-02T03:18:31.929Z,1.4
2023-09-02T03:19:40.455Z,1.5
2023-09-02T03:20:48.774Z,1.5
2023-09-02T03:21:57.082Z,1.5
2023-09-02T03:23:05.624Z,1.8
2023-09-02T03:24:13.954Z,1.8
2023-09-02T03:25:22.273Z,1.8
2023-09-02T03:26:30.814Z,2.5
2023-09-02T03:27:39.157Z,2.5
2023-09-02T03:28:47.473Z,2.5
2023-09-02T03:29:55.967Z,2.9
2023-09-02T03:31:04.304Z,2.9
2023-09-02T03:32:12.622Z,2.9
2023-09-02T03:33:21.156Z,3.1
2023-09-02T03:34:29.482Z,3.1
2023-09-02T03:35:37.789Z,3.1
2023-09-02T03:36:46.315Z,2.7
2023-09-02T03:37:54.635Z,2.7
2023-09-02T03:39:02.951Z,2.7
2023-09-02T03:40:11.466Z,2.6
2023-09-02T03:41:19.789Z,2.6
2023-09-02T03:42:28.120Z,2.6
2023-09-02T03:43:36.679Z,2.3
2023-09-02T03:44:44.957Z,2.3
2023-09-02T03:45:53.274Z,2.3
2023-09-02T03:47:01.911Z,2.7
2023-09-02T03:48:10.224Z,2.7
2023-09-02T03:49:18.442Z,2.7
2023-09-02T03:50:26.964Z,2.7
2023-09-02T03:51:35.286Z,2.7
2023-09-02T03:52:43.599Z,2.7
2023-09-02T03:53:52.124Z,3.2
2023-09-02T03:55:00.448Z,3.2
2023-09-02T03:56:08.764Z,3.2
2023-09-02T03:57:17.290Z,3.4
2023-09-02T03:58:25.596Z,3.4
2023-09-02T03:59:33.942Z,3.4
2023-09-02T04:00:42.461Z,4.1
2023-09-02T04:01:50.765Z,4.1
2023-09-02T04:02:59.162Z,4.1
2023-09-02T04:04:07.654Z,3.9
2023-09-02T04:05:15.963Z,3.9
2023-09-02T04:06:24.270Z,3.9
2023-09-02T04:07:32.792Z,4.2
2023-09-02T04:08:41.107Z,4.2
2023-09-02T04:09:49.435Z,4.2
2023-09-02T04:10:57.968Z,4
2023-09-02T04:12:06.310Z,4
2023-09-02T04:13:14.655Z,4
2023-09-02T04:14:23.151Z,3.4
2023-09-02T04:15:31.497Z,3.4
2023-09-02T04:16:39.826Z,3.4
2023-09-02T04:17:48.368Z,3.7
2023-09-02T04:18:56.670Z,3.7
2023-09-02T04:20:04.963Z,3.7
2023-09-02T04:21:13.487Z,3.7
2023-09-02T04:22:21.806Z,3.7
2023-09-02T04:23:30.139Z,3.7
2023-09-02T04:24:38.681Z,3.5
2023-09-02T04:25:46.984Z,3.5
2023-09-02T04:26:55.314Z,3.5
2023-09-02T04:28:03.841Z,3.8
2023-09-02T04:29:12.160Z,3.8
2023-09-02T04:30:20.509Z,3.8
2023-09-02T04:31:29.038Z,3.6
2023-09-02T04:32:37.415Z,3.6
2023-09-02T04:33:45.644Z,3.6
2023-09-02T04:34:54.173Z,3.5
2023-09-02T04:36:02.515Z,3.5
2023-09-02T04:37:10.839Z,3.5
2023-09-02T04:38:19.380Z,3.5
2023-09-02T04:39:27.695Z,3.5
2023-09-02T04:40:36.007Z,3.5
2023-09-02T04:41:44.531Z,3.7
2023-09-02T04:42:52.863Z,3.7
2023-09-02T04:44:01.206Z,3.7
2023-09-02T04:45:09.729Z,3.6
2023-09-02T04:46:18.106Z,3.6
2023-09-02T04:47:26.453Z,3.6
2023-09-02T04:48:34.932Z,3.6
2023-09-02T04:49:43.231Z,3.6
2023-09-02T04:50:51.547Z,3.6
2023-09-02T04:52:00.080Z,3.3
2023-09-02T04:53:08.395Z,3.3
2023-09-02T04:54:16.725Z,3.3
2023-09-02T04:55:25.251Z,3.5
2023-09-02T04:56:33.585Z,3.5
2023-09-02T04:57:41.899Z,3.5
2023-09-02T04:58:50.417Z,3.4
2023-09-02T04:59:58.728Z,3.4
2023-09-02T05:01:07.053Z,3.4
2023-09-02T05:02:15.574Z,3.7
2023-09-02T05:03:23.916Z,3.7
2023-09-02T05:04:32.204Z,3.7
2023-09-02T05:05:40.783Z,4.2
2023-09-02T05:06:49.041Z,4.2
2023-09-02T05:07:57.356Z,4.2
2023-09-02T05:09:05.874Z,4
2023-09-02T05:10:14.193Z,4
2023-09-02T05:11:22.522Z,4
2023-09-02T05:12:31.030Z,3.7
2023-09-02T05:13:39.351Z,3.7
2023-09-02T05:14:47.677Z,3.7
2023-09-02T05:15:56.249Z,4.5
2023-09-02T05:17:04.518Z,4.5
2023-09-02T05:18:12.838Z,4.5
2023-09-02T05:19:21.396Z,4.3
2023-09-02T05:20:29.687Z,4.3
2023-09-02T05:21:38.018Z,4.3
2023-09-02T05:22:46.537Z,5.6
2023-09-02T05:23:54.868Z,5.6
2023-09-02T05:25:03.183Z,5.6
2023-09-02T05:26:11.706Z,4.5
2023-09-02T05:27:20.023Z,4.5
2023-09-02T05:28:28.340Z,4.5
2023-09-02T05:29:36.879Z,4.1
2023-09-02T05:30:45.188Z,4.1
2023-09-02T05:31:53.527Z,4.1
2023-09-02T05:33:02.074Z,4.1
2023-09-02T05:34:10.359Z,4.1
2023-09-02T05:35:18.688Z,4.1
2023-09-02T05:36:27.192Z,4.3
2023-09-02T05:37:35.508Z,4.3
2023-09-02T05:38:43.819Z,4.3
2023-09-02T05:39:52.355Z,3.7
2023-09-02T05:41:00.665Z,3.7
2023-09-02T05:42:08.990Z,3.7
2023-09-02T05:43:18.598Z,3.8
2023-09-02T05:44:26.715Z,3.8
2023-09-02T05:45:35.045Z,3.8
2023-09-02T05:46:43.574Z,3.3
2023-09-02T05:47:51.924Z,3.3
2023-09-02T05:49:00.213Z,3.3
2023-09-02T05:50:08.751Z,2.6
2023-09-02T05:51:17.095Z,2.6
2023-09-02T05:52:25.385Z,2.6
2023-09-02T05:53:33.939Z,2.3
2023-09-02T05:54:42.225Z,2.3
2023-09-02T05:55:50.534Z,2.3
2023-09-02T05:56:59.079Z,1.1
2023-09-02T05:58:07.392Z,1.1
2023-09-02T05:59:15.713Z,1.1
2023-09-02T06:00:24.273Z,1
2023-09-02T06:01:32.622Z,1
2023-09-02T06:02:40.929Z,1
2023-09-02T06:03:49.466Z,1.1
2023-09-02T06:04:57.787Z,1.1
2023-09-02T06:06:06.115Z,1.1
2023-09-02T06:07:14.763Z,1.2
2023-09-02T06:08:23.061Z,1.2
2023-09-02T06:09:31.407Z,1.2
2023-09-02T06:10:39.937Z,1.2
2023-09-02T06:11:48.276Z,1.2
2023-09-02T06:12:56.592Z,1.2
2023-09-02T06:14:05.117Z,1.5
2023-09-02T06:15:13.443Z,1.5
2023-09-02T06:16:21.756Z,1.5
2023-09-02T06:17:30.294Z,1.6
2023-09-02T06:18:38.588Z,1.6
2023-09-02T06:19:46.906Z,1.6
2023-09-02T06:20:55.435Z,1.7
2023-09-02T06:22:03.760Z,1.7
2023-09-02T06:23:12.102Z,1.7
2023-09-02T06:24:20.612Z,1.6
2023-09-02T06:25:28.936Z,1.6
2023-09-02T06:26:37.265Z,1.6
2023-09-02T06:27:45.789Z,1.6
2023-09-02T06:28:54.111Z,1.6
2023-09-02T06:30:02.428Z,1.6
2023-09-02T06:31:10.972Z,1.7
2023-09-02T06:32:19.262Z,1.7
2023-09-02T06:33:27.596Z,1.7
2023-09-02T06:34:36.119Z,1.6
2023-09-02T06:35:44.464Z,1.6
2023-09-02T06:36:52.784Z,1.6
2023-09-02T06:38:01.315Z,1.6
2023-09-02T06:39:09.654Z,1.6
2023-09-02T06:40:17.956Z,1.6
2023-09-02T06:41:26.475Z,1.4
2023-09-02T06:42:34.872Z,1.4
2023-09-02T06:44:04.612Z,1.4
2023-09-02T06:45:13.242Z,1.3
2023-09-02T06:46:21.639Z,1.3
2023-09-02T06:47:30.120Z,1.3
2023-09-02T06:48:38.635Z,1.7
2023-09-02T06:49:46.955Z,1.7
2023-09-02T06:50:55.266Z,1.7
2023-09-02T06:52:03.800Z,1.6
2023-09-02T06:53:12.121Z,1.6
2023-09-02T06:54:20.481Z,1.6
2023-09-02T06:55:28.979Z,1.9
2023-09-02T06:56:37.290Z,1.9
2023-09-02T06:57:45.612Z,1.9
2023-09-02T06:58:54.190Z,3.2
2023-09-02T07:00:02.495Z,3.2
2023-09-02T07:01:10.834Z,3.2
2023-09-02T07:02:19.366Z,2
2023-09-02T07:03:27.775Z,2
2023-09-02T07:04:35.993Z,2
2023-09-02T07:05:44.522Z,1.7
2023-09-02T07:06:52.857Z,1.7
2023-09-02T07:08:01.176Z,1.7
2023-09-02T07:09:09.712Z,1.9
2023-09-02T07:10:18.045Z,1.9
2023-09-02T07:11:26.349Z,1.9
2023-09-02T07:12:34.891Z,1.8
2023-09-02T07:13:43.225Z,1.8
2023-09-02T07:14:51.531Z,1.8
2023-09-02T07:16:00.071Z,1.5
2023-09-02T07:17:08.377Z,1.5
2023-09-02T07:18:16.705Z,1.5
2023-09-02T07:19:25.269Z,1.5
2023-09-02T07:20:33.604Z,1.5
2023-09-02T07:21:41.929Z,1.5
2023-09-02T07:22:50.460Z,1.5
2023-09-02T07:23:58.936Z,1.5
2023-09-02T07:25:07.171Z,1.5
2023-09-02T07:26:15.713Z,1.4
2023-09-02T07:27:24.007Z,1.4
2023-09-02T07:28:32.315Z,1.4
2023-09-02T07:29:40.851Z,1.3
2023-09-02T07:30:49.179Z,1.3
2023-09-02T07:31:57.476Z,1.3
2023-09-02T07:33:06.016Z,1.9
2023-09-02T07:34:14.326Z,1.9
2023-09-02T07:35:22.638Z,1.9
2023-09-02T07:36:31.166Z,1.3
2023-09-02T07:37:39.507Z,1.3
2023-09-02T07:38:47.828Z,1.3
2023-09-02T07:39:56.349Z,1.2
2023-09-02T07:41:04.672Z,1.2
2023-09-02T07:42:13.037Z,1.2
2023-09-02T07:43:21.825Z,1.2
2023-09-02T07:44:29.998Z,1.2
2023-09-02T07:45:38.350Z,1.2
2023-09-02T07:46:46.859Z,5.5
2023-09-02T07:47:55.204Z,5.5
2023-09-02T07:49:03.507Z,5.5
2023-09-02T07:50:12.032Z,2.3
2023-09-02T07:51:20.357Z,2.3
2023-09-02T07:52:28.668Z,2.3
2023-09-02T07:53:37.212Z,2
2023-09-02T07:54:45.529Z,2
2023-09-02T07:55:53.840Z,2
2023-09-02T07:57:02.392Z,2
2023-09-02T07:58:10.747Z,2
2023-09-02T07:59:19.038Z,2
2023-09-02T08:00:27.562Z,2
2023-09-02T08:01:35.907Z,2
2023-09-02T08:02:44.237Z,2
2023-09-02T08:03:52.766Z,1.9
2023-09-02T08:05:01.058Z,1.9
2023-09-02T08:06:09.379Z,1.9
2023-09-02T08:07:17.921Z,1.8
2023-09-02T08:08:26.228Z,1.8
2023-09-02T08:09:34.570Z,1.8
2023-09-02T08:10:43.098Z,2
2023-09-02T08:11:51.427Z,2
2023-09-02T08:12:59.804Z,2
2023-09-02T08:14:08.329Z,2.6
2023-09-02T08:15:16.613Z,2.6
2023-09-02T08:16:24.971Z,2.6
2023-09-02T08:17:33.464Z,3.2
2023-09-02T08:18:41.797Z,3.2
2023-09-02T08:19:50.101Z,3.2
2023-09-02T08:20:58.634Z,3.2
2023-09-02T08:22:06.957Z,3.2
2023-09-02T08:23:15.263Z,3.2
2023-09-02T08:24:23.778Z,3
2023-09-02T08:25:32.100Z,3
2023-09-02T08:26:40.421Z,3
2023-09-02T08:27:48.935Z,4.5
2023-09-02T08:28:57.284Z,4.5
2023-09-02T08:30:05.720Z,4.5
2023-09-02T08:31:14.118Z,3.2
2023-09-02T08:32:22.430Z,3.2
2023-09-02T08:33:30.735Z,3.2
2023-09-02T08:34:39.265Z,3.8
2023-09-02T08:35:47.594Z,3.8
2023-09-02T08:36:55.918Z,3.8
2023-09-02T08:38:04.448Z,3.6
2023-09-02T08:39:12.822Z,3.6
2023-09-02T08:40:21.138Z,3.6
2023-09-02T08:41:29.687Z,3.2
2023-09-02T08:42:38.011Z,3.2
2023-09-02T08:43:46.317Z,3.2
2023-09-02T08:44:54.855Z,2.5
2023-09-02T08:46:03.200Z,2.5
2023-09-02T08:47:11.492Z,2.5
2023-09-02T08:48:20.018Z,2.2
2023-09-02T08:49:28.345Z,2.2
2023-09-02T08:50:36.654Z,2.2
2023-09-02T08:51:45.207Z,2.7
2023-09-02T08:52:53.491Z,2.7
2023-09-02T08:54:01.852Z,2.7
2023-09-02T08:55:12.610Z,1.8
2023-09-02T08:56:18.703Z,1.8
2023-09-02T08:57:27.079Z,1.8
2023-09-02T08:58:35.561Z,1.8
2023-09-02T08:59:43.876Z,1.8
2023-09-02T09:00:52.223Z,1.8
2023-09-02T09:02:00.750Z,1.5
2023-09-02T09:03:09.106Z,1.5
2023-09-02T09:04:17.368Z,1.5
2023-09-02T09:05:25.886Z,1.7
2023-09-02T09:06:34.195Z,1.7
2023-09-02T09:07:42.531Z,1.7
2023-09-02T09:08:51.061Z,1.7
2023-09-02T09:09:59.373Z,1.7
2023-09-02T09:11:07.712Z,1.7
2023-09-02T09:12:16.233Z,1.7
2023-09-02T09:13:24.545Z,1.7
2023-09-02T09:14:32.873Z,1.7
2023-09-02T09:15:41.404Z,1.7
2023-09-02T09:16:49.777Z,1.7
2023-09-02T09:17:58.085Z,1.7
2023-09-02T09:19:07.072Z,1.9
2023-09-02T09:20:14.892Z,1.9
2023-09-02T09:21:23.223Z,1.9
2023-09-02T09:22:31.742Z,1.7
2023-09-02T09:23:40.064Z,1.7
2023-09-02T09:24:48.390Z,1.7
2023-09-02T09:25:56.911Z,1.5
2023-09-02T09:27:05.227Z,1.5
2023-09-02T09:28:13.573Z,1.5
2023-09-02T09:29:22.123Z,1.7
2023-09-02T09:30:30.492Z,1.7
2023-09-02T09:31:38.760Z,1.7
2023-09-02T09:32:47.307Z,2.6
2023-09-02T09:33:55.666Z,2.6
2023-09-02T09:35:03.996Z,2.6
2023-09-02T09:36:12.526Z,2.5
2023-09-02T09:37:20.857Z,2.5
2023-09-02T09:38:29.173Z,2.5
2023-09-02T09:39:37.700Z,2
2023-09-02T09:40:46.030Z,2
2023-09-02T09:41:54.316Z,2
2023-09-02T09:43:02.841Z,2.1
2023-09-02T09:44:11.174Z,2.1
2023-09-02T09:45:19.520Z,2.1
2023-09-02T09:46:28.152Z,1.9
2023-09-02T09:47:36.417Z,1.9
2023-09-02T09:48:44.766Z,1.9
2023-09-02T09:49:53.333Z,2
2023-09-02T09:51:01.655Z,2
2023-09-02T09:52:09.991Z,2
2023-09-02T09:53:18.741Z,2.1
2023-09-02T09:54:26.890Z,2.1
2023-09-02T09:55:35.240Z,2.1
2023-09-02T09:56:43.768Z,1.7
2023-09-02T09:57:52.119Z,1.7
2023-09-02T09:59:00.456Z,1.7
2023-09-02T10:00:08.992Z,1.9
2023-09-02T10:01:17.349Z,1.9
2023-09-02T10:02:25.659Z,1.9
2023-09-02T10:03:34.187Z,1.7
2023-09-02T10:04:42.529Z,1.7
2023-09-02T10:05:50.951Z,1.7
2023-09-02T10:06:59.419Z,1.8
2023-09-02T10:08:07.914Z,1.8
2023-09-02T10:09:16.100Z,1.8
2023-09-02T10:10:24.644Z,1.6
2023-09-02T10:11:32.984Z,1.6
2023-09-02T10:12:41.325Z,1.6
2023-09-02T10:13:49.858Z,2.4
2023-09-02T10:14:58.194Z,2.4
2023-09-02T10:16:06.547Z,2.4
2023-09-02T10:17:15.078Z,1.8
2023-09-02T10:18:23.390Z,1.8
2023-09-02T10:19:31.696Z,1.8
2023-09-02T10:20:40.236Z,1.4
2023-09-02T10:21:48.576Z,1.4
2023-09-02T10:22:56.882Z,1.4
2023-09-02T10:24:05.414Z,1.7
2023-09-02T10:25:13.739Z,1.7
2023-09-02T10:26:22.086Z,1.7
2023-09-02T10:27:30.622Z,1.2
2023-09-02T10:28:38.928Z,1.2
2023-09-02T10:29:47.242Z,1.2
2023-09-02T10:30:55.790Z,1.5
2023-09-02T10:32:04.096Z,1.5
2023-09-02T10:33:12.443Z,1.5
2023-09-02T10:34:20.944Z,1.3
2023-09-02T10:35:29.276Z,1.3
2023-09-02T10:36:37.610Z,1.3
2023-09-02T10:37:46.166Z,1.5
2023-09-02T10:38:54.482Z,1.5
2023-09-02T10:40:02.809Z,1.5
2023-09-02T10:41:11.341Z,1.6
2023-09-02T10:42:19.659Z,1.6
2023-09-02T10:43:27.977Z,1.6
2023-09-02T10:44:36.505Z,1.5
2023-09-02T10:45:44.866Z,1.5
2023-09-02T10:46:54.960Z,1.5
2023-09-02T10:48:01.672Z,1.5
2023-09-02T10:49:10.012Z,1.5
2023-09-02T10:50:18.324Z,1.5
2023-09-02T10:51:26.859Z,1.5
2023-09-02T10:52:35.189Z,1.5
2023-09-02T10:53:43.532Z,1.5
2023-09-02T10:54:52.048Z,1.3
2023-09-02T10:56:00.365Z,1.3
2023-09-02T10:57:08.684Z,1.3
2023-09-02T10:58:17.210Z,1.3
2023-09-02T10:59:25.554Z,1.3
2023-09-02T11:00:33.873Z,1.3
2023-09-02T11:01:42.405Z,1.2
2023-09-02T11:02:50.765Z,1.2
2023-09-02T11:03:59.027Z,1.2
2023-09-02T11:05:07.565Z,1.2
2023-09-02T11:06:15.910Z,1.2
2023-09-02T11:07:24.256Z,1.2
2023-09-02T11:08:32.787Z,1.2
2023-09-02T11:09:41.193Z,1.2
2023-09-02T11:10:49.510Z,1.2
2023-09-02T11:11:58.047Z,1.1
2023-09-02T11:13:06.368Z,1.1
2023-09-02T11:14:14.705Z,1.1
2023-09-02T11:15:23.228Z,1.1
2023-09-02T11:16:31.570Z,1.1
2023-09-02T11:17:39.948Z,1.1
2023-09-02T11:18:48.512Z,1.2
2023-09-02T11:19:56.756Z,1.2
2023-09-02T11:21:05.081Z,1.2
2023-09-02T11:22:13.656Z,1
2023-09-02T11:23:21.973Z,1
2023-09-02T11:24:30.304Z,1
2023-09-02T11:25:38.862Z,1.3
2023-09-02T11:26:47.195Z,1.3
2023-09-02T11:27:55.528Z,1.3
2023-09-02T11:29:04.057Z,1.1
2023-09-02T11:30:12.393Z,1.1
2023-09-02T11:31:20.772Z,1.1
2023-09-02T11:32:29.301Z,1.2
2023-09-02T11:33:37.645Z,1.2
2023-09-02T11:34:45.981Z,1.2
2023-09-02T11:35:54.538Z,1
2023-09-02T11:37:02.887Z,1
2023-09-02T11:38:11.227Z,1
2023-09-02T11:39:19.758Z,1.1
2023-09-02T11:40:28.095Z,1.1
2023-09-02T11:41:36.462Z,1.1
2023-09-02T11:42:44.946Z,1
2023-09-02T11:43:53.263Z,1
2023-09-02T11:45:01.619Z,1
2023-09-02T11:46:10.163Z,1.4
2023-09-02T11:47:18.490Z,1.4
2023-09-02T11:48:26.843Z,1.4
2023-09-02T11:49:35.375Z,1.4
2023-09-02T11:50:43.723Z,1.4
2023-09-02T11:51:52.074Z,1.4
2023-09-02T11:53:00.605Z,1.3
2023-09-02T11:54:08.940Z,1.3
2023-09-02T11:55:17.305Z,1.3
2023-09-02T11:56:25.842Z,1.1
2023-09-02T11:57:34.207Z,1.1
2023-09-02T11:58:42.522Z,1.1
2023-09-02T11:59:51.087Z,1
2023-09-02T12:00:59.420Z,1
2023-09-02T12:02:07.771Z,1
2023-09-02T12:03:16.374Z,1.2
2023-09-02T12:04:24.646Z,1.2
2023-09-02T12:05:32.982Z,1.2
2023-09-02T12:06:41.534Z,1
2023-09-02T12:07:49.868Z,1
2023-09-02T12:08:58.221Z,1
2023-09-02T12:10:06.772Z,1
2023-09-02T12:11:15.100Z,1
2023-09-02T12:12:23.435Z,1
2023-09-02T12:13:31.992Z,0.9
2023-09-02T12:14:40.294Z,0.9
2023-09-02T12:15:48.627Z,0.9
2023-09-02T12:16:57.236Z,0.9
2023-09-02T12:18:05.592Z,0.9
2023-09-02T12:19:13.807Z,0.9
2023-09-02T12:20:22.365Z,1
2023-09-02T12:21:30.716Z,1
2023-09-02T12:22:39.057Z,1
2023-09-02T12:23:47.585Z,0.9
2023-09-02T12:24:55.907Z,0.9
2023-09-02T12:26:04.269Z,0.9
2023-09-02T12:27:12.792Z,1
2023-09-02T12:28:21.130Z,1
2023-09-02T12:29:29.512Z,1
2023-09-02T12:30:38.028Z,1
2023-09-02T12:31:46.313Z,1
2023-09-02T12:32:54.704Z,1
2023-09-02T12:34:03.174Z,1
2023-09-02T12:35:11.546Z,1
2023-09-02T12:36:19.964Z,1
2023-09-02T12:37:28.503Z,1.1
2023-09-02T12:38:36.836Z,1.1
2023-09-02T12:39:45.136Z,1.1
2023-09-02T12:40:53.683Z,1
2023-09-02T12:42:02.056Z,1
2023-09-02T12:43:10.344Z,1
2023-09-02T12:44:18.882Z,1
2023-09-02T12:45:27.242Z,1
2023-09-02T12:46:35.555Z,1
2023-09-02T12:47:44.134Z,0.8
2023-09-02T12:48:52.420Z,0.8
2023-09-02T12:50:00.716Z,0.8
2023-09-02T12:51:09.268Z,1.2
2023-09-02T12:52:17.588Z,1.2
2023-09-02T12:53:25.906Z,1.2
2023-09-02T12:54:34.446Z,0.9
2023-09-02T12:55:42.793Z,0.9
2023-09-02T12:56:51.155Z,0.9
2023-09-02T12:57:59.721Z,1.1
2023-09-02T12:59:08.008Z,1.1
2023-09-02T13:00:16.357Z,1.1
2023-09-02T13:01:24.958Z,1
2023-09-02T13:02:33.318Z,1
2023-09-02T13:03:41.604Z,1
2023-09-02T13:04:50.123Z,0.8
2023-09-02T13:05:58.422Z,0.8
2023-09-02T13:07:06.756Z,0.8
2023-09-02T13:08:15.304Z,0.8
2023-09-02T13:09:23.648Z,0.8
2023-09-02T13:10:31.987Z,0.8
2023-09-02T13:11:40.514Z,0.9
2023-09-02T13:12:48.833Z,0.9
2023-09-02T13:13:57.158Z,0.9
2023-09-02T13:15:05.707Z,0.9
2023-09-02T13:16:14.081Z,0.9
2023-09-02T13:17:22.373Z,0.9
2023-09-02T13:18:30.913Z,2.1
2023-09-02T13:19:39.247Z,2.1
2023-09-02T13:20:47.579Z,2.1
2023-09-02T13:21:56.112Z,71.099998
2023-09-02T13:23:04.460Z,71.099998
2023-09-02T13:24:12.779Z,71.099998
2023-09-02T13:25:21.321Z,5.2
2023-09-02T13:26:29.651Z,5.2
2023-09-02T13:27:37.974Z,5.2
2023-09-02T13:28:46.530Z,2.6
2023-09-02T13:29:54.869Z,2.6
2023-09-02T13:31:03.229Z,2.6
2023-09-02T13:32:11.732Z,0.9
2023-09-02T13:33:20.387Z,0.9
2023-09-02T13:34:28.390Z,0.9
2023-09-02T13:35:36.921Z,1.1
2023-09-02T13:36:45.232Z,1.1
2023-09-02T13:37:53.570Z,1.1
2023-09-02T13:39:02.110Z,1.2
2023-09-02T13:40:10.447Z,1.2
2023-09-02T13:41:18.776Z,1.2
2023-09-02T13:42:27.286Z,1
2023-09-02T13:43:35.611Z,1
2023-09-02T13:44:43.942Z,1
2023-09-02T13:45:52.488Z,1
2023-09-02T13:47:00.805Z,1
2023-09-02T13:48:09.352Z,1
2023-09-02T13:49:17.717Z,4.1
2023-09-02T13:50:25.999Z,4.1
2023-09-02T13:51:34.340Z,4.1
2023-09-02T13:52:42.854Z,1.4
2023-09-02T13:53:51.162Z,1.4
2023-09-02T13:54:59.498Z,1.4
2023-09-02T13:56:08.044Z,0.8
2023-09-02T13:57:16.386Z,0.8
2023-09-02T13:58:24.722Z,0.8
2023-09-02T13:59:33.273Z,0.9
2023-09-02T14:00:41.677Z,0.9
2023-09-02T14:01:49.957Z,0.9
2023-09-02T14:02:58.529Z,0.7
2023-09-02T14:04:06.859Z,0.7
2023-09-02T14:05:15.241Z,0.7
2023-09-02T14:06:23.713Z,1.4
2023-09-02T14:07:32.028Z,1.4
2023-09-02T14:08:40.431Z,1.4
2023-09-02T14:09:48.888Z,0.9
2023-09-02T14:10:57.292Z,0.9
2023-09-02T14:12:05.604Z,0.9
2023-09-02T14:13:14.136Z,0.7
2023-09-02T14:14:22.466Z,0.7
2023-09-02T14:15:30.775Z,0.7
2023-09-02T14:16:39.325Z,0.6
2023-09-02T14:17:47.656Z,0.6
2023-09-02T14:18:55.974Z,0.6
2023-09-02T14:20:04.500Z,0.8
2023-09-02T14:21:12.838Z,0.8
2023-09-02T14:22:21.131Z,0.8
2023-09-02T14:23:29.754Z,0.8
2023-09-02T14:24:38.065Z,0.8
2023-09-02T14:25:46.344Z,0.8
2023-09-02T14:26:54.871Z,0.9
2023-09-02T14:28:03.212Z,0.9
2023-09-02T14:29:11.518Z,0.9
2023-09-02T14:30:20.061Z,0.7
2023-09-02T14:31:28.378Z,0.7
2023-09-02T14:32:36.728Z,0.7
2023-09-02T14:33:45.889Z,0.8
2023-09-02T14:34:54.230Z,0.8
2023-09-02T14:36:02.562Z,0.8
2023-09-02T14:37:11.119Z,0.8
2023-09-02T14:38:21.924Z,0.8
2023-09-02T14:39:27.732Z,0.8
2023-09-02T14:40:36.266Z,0.9
2023-09-02T14:41:44.575Z,0.9
2023-09-02T14:42:52.935Z,0.9
2023-09-02T14:44:01.459Z,0.7
2023-09-02T14:45:09.774Z,0.7
2023-09-02T14:46:18.134Z,0.7
2023-09-02T14:47:26.732Z,0.7
2023-09-02T14:48:34.931Z,0.7
2023-09-02T14:49:43.243Z,0.7
2023-09-02T14:50:51.768Z,0.9
2023-09-02T14:52:00.116Z,0.9
2023-09-02T14:53:08.435Z,0.9
2023-09-02T14:54:16.953Z,1
2023-09-02T14:55:25.287Z,1
2023-09-02T14:56:33.603Z,1
2023-09-02T14:57:42.155Z,0.9
2023-09-02T14:58:50.454Z,0.9
2023-09-02T14:59:58.775Z,0.9
2023-09-02T15:01:07.312Z,0.8
2023-09-02T15:02:15.661Z,0.8
2023-09-02T15:03:26.743Z,0.8
2023-09-02T15:04:32.512Z,0.8
2023-09-02T15:05:40.841Z,0.8
2023-09-02T15:06:49.178Z,0.8
2023-09-02T15:07:57.726Z,1
2023-09-02T15:09:06.137Z,1
2023-09-02T15:10:14.346Z,1
2023-09-02T15:11:22.891Z,1
2023-09-02T15:46:09.032Z,0
2023-09-02T15:47:17.272Z,0
2023-09-02T15:48:25.599Z,0
2023-09-02T15:49:34.160Z,1
2023-09-02T15:50:42.477Z,1
2023-09-02T15:51:50.813Z,1
2023-09-02T15:52:59.354Z,1.3
2023-09-02T15:54:07.699Z,1.3
2023-09-02T15:55:16.036Z,1.3
2023-09-02T15:56:24.573Z,2.3
2023-09-02T15:57:32.924Z,2.3
2023-09-02T15:58:41.242Z,2.3
2023-09-02T15:59:49.766Z,1.1
2023-09-02T16:00:58.094Z,1.1
2023-09-02T16:02:06.499Z,1.1
2023-09-02T16:03:15.124Z,1
2023-09-02T16:04:23.313Z,1
2023-09-02T16:05:31.750Z,1
2023-09-02T16:06:40.169Z,1.1
2023-09-02T16:07:48.528Z,1.1
2023-09-02T16:08:56.829Z,1.1
2023-09-02T16:10:05.353Z,0.8
2023-09-02T16:11:13.688Z,0.8
2023-09-02T16:12:22.011Z,0.8
2023-09-02T16:13:30.547Z,1
2023-09-02T16:14:38.889Z,1
2023-09-02T16:15:47.253Z,1
2023-09-02T16:16:55.775Z,1.5
2023-09-02T16:18:04.161Z,1.5
2023-09-02T16:19:12.429Z,1.5
2023-09-02T16:20:21.285Z,1.3
2023-09-02T16:21:29.611Z,1.3
2023-09-02T16:22:37.927Z,1.3
2023-09-02T16:23:46.479Z,1
2023-09-02T16:24:54.827Z,1